sensor_id;sensor_type;location;lat;lon;timestamp;pressure;altitude;pressure_sealevel;temperature;humidity
7309;BME280;3695;53.330;9.876;2023-08-06T00:01:50;101080.78;;;9.26;nan
7309;BME280;3695;53.330;9.876;2023-08-06T00:04:17;100689.41;;;9.40;nan
7309;BME280;3695;53.330;9.876;2023-08-06T00:06:44;100268.47;;;9.45;nan
7309;BME280;3695;53.330;9.876;2023-08-06T00:09:11;100189.75;;;9.54;nan
7309;BME280;3695;53.330;9.876;2023-08-06T00:11:39;100032.75;;;9.30;nan
7309;BME280;3695;53.330;9.876;2023-08-06T00:14:08;100365.25;;;9.19;nan
7309;BME280;3695;53.330;9.876;2023-08-06T00:16:35;100672.59;;;9.31;nan
7309;BME280;3695;53.330;9.876;2023-08-06T00:19:01;100819.69;;;9.24;nan
7309;BME280;3695;53.330;9.876;2023-08-06T00:21:28;100509.47;;;9.37;nan
7309;BME280;3695;53.330;9.876;2023-08-06T00:23:54;100089.09;;;9.52;nan
7309;BME280;3695;53.330;9.876;2023-08-06T00:26:21;99705.47;;;9.60;nan
7309;BME280;3695;53.330;9.876;2023-08-06T00:28:49;100084.66;;;9.39;nan
7309;BME280;3695;53.330;9.876;2023-08-06T00:31:15;100260.50;;;9.32;nan
7309;BME280;3695;53.330;9.876;2023-08-06T00:33:41;100515.69;;;9.06;nan
7309;BME280;3695;53.330;9.876;2023-08-06T00:36:08;100602.44;;;9.50;nan
7309;BME280;3695;53.330;9.876;2023-08-06T00:38:34;100376.13;;;9.62;nan
7309;BME280;3695;53.330;9.876;2023-08-06T00:41:01;100050.78;;;9.36;nan
7309;BME280;3695;53.330;9.876;2023-08-06T00:43:27;100052.97;;;9.46;nan
7309;BME280;3695;53.330;9.876;2023-08-06T00:45:55;100175.19;;;9.55;nan
7309;BME280;3695;53.330;9.876;2023-08-06T00:48:22;100408.84;;;9.29;nan
7309;BME280;3695;53.330;9.876;2023-08-06T00:50:48;100685.09;;;9.26;nan
7309;BME280;3695;53.330;9.876;2023-08-06T00:53:15;101054.59;;;9.33;nan
7309;BME280;3695;53.330;9.876;2023-08-06T00:55:41;101313.97;;;9.50;nan
7309;BME280;3695;53.330;9.876;2023-08-06T00:58:10;101180.31;;;9.44;nan
7309;BME280;3695;53.330;9.876;2023-08-06T01:00:38;101107.75;;;9.61;nan
7309;BME280;3695;53.330;9.876;2023-08-06T01:03:06;100246.28;;;9.62;nan
7309;BME280;3695;53.330;9.876;2023-08-06T01:05:32;99788.50;;;9.60;nan
7309;BME280;3695;53.330;9.876;2023-08-06T01:08:12;99969.88;;;9.65;nan
7309;BME280;3695;53.330;9.876;2023-08-06T01:10:51;99589.00;;;9.67;nan
7309;BME280;3695;53.330;9.876;2023-08-06T01:13:31;99621.75;;;9.54;nan
7309;BME280;3695;53.330;9.876;2023-08-06T01:16:00;99581.28;;;9.59;nan
7309;BME280;3695;53.330;9.876;2023-08-06T01:18:29;99413.91;;;9.62;nan
7309;BME280;3695;53.330;9.876;2023-08-06T01:20:56;99385.41;;;9.55;nan
7309;BME280;3695;53.330;9.876;2023-08-06T01:23:24;99237.84;;;9.64;nan
7309;BME280;3695;53.330;9.876;2023-08-06T01:25:56;99177.84;;;9.67;nan
7309;BME280;3695;53.330;9.876;2023-08-06T01:28:32;99142.56;;;9.57;nan
7309;BME280;3695;53.330;9.876;2023-08-06T01:31:01;99053.31;;;9.57;nan
7309;BME280;3695;53.330;9.876;2023-08-06T01:33:32;99045.22;;;9.57;nan
7309;BME280;3695;53.330;9.876;2023-08-06T01:36:01;99004.13;;;9.60;nan
7309;BME280;3695;53.330;9.876;2023-08-06T01:38:28;99028.97;;;9.57;nan
7309;BME280;3695;53.330;9.876;2023-08-06T01:40:55;99097.97;;;9.59;nan
7309;BME280;3695;53.330;9.876;2023-08-06T01:43:21;99223.63;;;9.52;nan
7309;BME280;3695;53.330;9.876;2023-08-06T01:45:48;99160.13;;;9.54;nan
7309;BME280;3695;53.330;9.876;2023-08-06T01:48:14;99106.28;;;9.53;nan
7309;BME280;3695;53.330;9.876;2023-08-06T01:50:40;99291.81;;;9.54;nan
7309;BME280;3695;53.330;9.876;2023-08-06T01:53:08;99470.66;;;9.45;nan
7309;BME280;3695;53.330;9.876;2023-08-06T01:55:35;99552.97;;;9.50;nan
7309;BME280;3695;53.330;9.876;2023-08-06T01:58:01;99436.03;;;9.59;nan
7309;BME280;3695;53.330;9.876;2023-08-06T02:00:27;99352.38;;;9.53;nan
7309;BME280;3695;53.330;9.876;2023-08-06T02:02:54;99353.56;;;9.45;nan
7309;BME280;3695;53.330;9.876;2023-08-06T02:05:20;99298.22;;;9.48;nan
7309;BME280;3695;53.330;9.876;2023-08-06T02:07:47;99186.28;;;9.49;nan
7309;BME280;3695;53.330;9.876;2023-08-06T02:10:14;99084.59;;;9.48;nan
7309;BME280;3695;53.330;9.876;2023-08-06T02:12:41;98985.16;;;9.55;nan
7309;BME280;3695;53.330;9.876;2023-08-06T02:15:08;98968.69;;;9.56;nan
7309;BME280;3695;53.330;9.876;2023-08-06T02:17:35;98954.81;;;9.48;nan
7309;BME280;3695;53.330;9.876;2023-08-06T02:20:01;98964.47;;;9.43;nan
7309;BME280;3695;53.330;9.876;2023-08-06T02:22:28;98999.44;;;9.50;nan
7309;BME280;3695;53.330;9.876;2023-08-06T02:24:54;99102.00;;;9.57;nan
7309;BME280;3695;53.330;9.876;2023-08-06T02:27:22;99268.47;;;9.48;nan
7309;BME280;3695;53.330;9.876;2023-08-06T02:29:48;99447.31;;;9.39;nan
7309;BME280;3695;53.330;9.876;2023-08-06T02:32:15;99487.94;;;9.44;nan
7309;BME280;3695;53.330;9.876;2023-08-06T02:34:41;99608.47;;;9.40;nan
7309;BME280;3695;53.330;9.876;2023-08-06T02:37:08;99633.16;;;9.44;nan
7309;BME280;3695;53.330;9.876;2023-08-06T02:39:34;99760.03;;;9.45;nan
7309;BME280;3695;53.330;9.876;2023-08-06T02:42:05;99799.78;;;9.57;nan
7309;BME280;3695;53.330;9.876;2023-08-06T02:44:33;99855.38;;;9.41;nan
7309;BME280;3695;53.330;9.876;2023-08-06T02:47:00;99954.31;;;9.49;nan
7309;BME280;3695;53.330;9.876;2023-08-06T02:49:26;99796.72;;;9.41;nan
7309;BME280;3695;53.330;9.876;2023-08-06T02:51:52;99640.72;;;9.30;nan
7309;BME280;3695;53.330;9.876;2023-08-06T02:54:19;99669.97;;;9.57;nan
7309;BME280;3695;53.330;9.876;2023-08-06T02:56:46;99586.00;;;9.52;nan
7309;BME280;3695;53.330;9.876;2023-08-06T02:59:12;99388.59;;;9.52;nan
7309;BME280;3695;53.330;9.876;2023-08-06T03:01:40;99302.06;;;9.52;nan
7309;BME280;3695;53.330;9.876;2023-08-06T03:04:07;99266.41;;;9.55;nan
7309;BME280;3695;53.330;9.876;2023-08-06T03:06:33;99245.66;;;9.60;nan
7309;BME280;3695;53.330;9.876;2023-08-06T03:08:59;99417.66;;;9.44;nan
7309;BME280;3695;53.330;9.876;2023-08-06T03:11:26;99431.38;;;9.55;nan
7309;BME280;3695;53.330;9.876;2023-08-06T03:13:52;99569.56;;;9.41;nan
7309;BME280;3695;53.330;9.876;2023-08-06T03:16:19;99839.16;;;9.29;nan
7309;BME280;3695;53.330;9.876;2023-08-06T03:18:46;100127.09;;;9.38;nan
7309;BME280;3695;53.330;9.876;2023-08-06T03:21:13;100345.81;;;9.28;nan
7309;BME280;3695;53.330;9.876;2023-08-06T03:23:39;100386.28;;;9.41;nan
7309;BME280;3695;53.330;9.876;2023-08-06T03:26:06;100393.78;;;9.39;nan
7309;BME280;3695;53.330;9.876;2023-08-06T03:28:32;100210.31;;;9.36;nan
7309;BME280;3695;53.330;9.876;2023-08-06T03:30:59;100203.72;;;9.32;nan
7309;BME280;3695;53.330;9.876;2023-08-06T03:33:26;100072.34;;;9.25;nan
7309;BME280;3695;53.330;9.876;2023-08-06T03:35:54;100147.59;;;9.28;nan
7309;BME280;3695;53.330;9.876;2023-08-06T03:38:20;100304.94;;;9.18;nan
7309;BME280;3695;53.330;9.876;2023-08-06T03:40:47;100462.75;;;9.24;nan
7309;BME280;3695;53.330;9.876;2023-08-06T03:43:14;100460.75;;;9.44;nan
7309;BME280;3695;53.330;9.876;2023-08-06T03:45:41;100547.75;;;9.34;nan
7309;BME280;3695;53.330;9.876;2023-08-06T03:48:08;100280.03;;;9.34;nan
7309;BME280;3695;53.330;9.876;2023-08-06T03:50:35;100291.84;;;9.40;nan
7309;BME280;3695;53.330;9.876;2023-08-06T03:53:03;100208.00;;;9.40;nan
7309;BME280;3695;53.330;9.876;2023-08-06T03:55:29;100234.44;;;9.38;nan
7309;BME280;3695;53.330;9.876;2023-08-06T03:57:56;100097.13;;;9.40;nan
7309;BME280;3695;53.330;9.876;2023-08-06T04:00:22;100113.66;;;9.50;nan
7309;BME280;3695;53.330;9.876;2023-08-06T04:02:48;99967.97;;;9.54;nan
7309;BME280;3695;53.330;9.876;2023-08-06T04:05:15;99703.13;;;9.40;nan
7309;BME280;3695;53.330;9.876;2023-08-06T04:07:42;99654.44;;;9.40;nan
7309;BME280;3695;53.330;9.876;2023-08-06T04:10:11;99770.97;;;9.39;nan
7309;BME280;3695;53.330;9.876;2023-08-06T04:12:37;100050.19;;;9.34;nan
7309;BME280;3695;53.330;9.876;2023-08-06T04:15:05;100117.09;;;9.39;nan
7309;BME280;3695;53.330;9.876;2023-08-06T04:17:32;99903.69;;;9.37;nan
7309;BME280;3695;53.330;9.876;2023-08-06T04:19:58;99627.66;;;9.51;nan
7309;BME280;3695;53.330;9.876;2023-08-06T04:22:25;99284.00;;;9.57;nan
7309;BME280;3695;53.330;9.876;2023-08-06T04:24:51;98953.81;;;9.59;nan
7309;BME280;3695;53.330;9.876;2023-08-06T04:27:19;98794.75;;;9.51;nan
7309;BME280;3695;53.330;9.876;2023-08-06T04:29:46;98742.34;;;9.57;nan
7309;BME280;3695;53.330;9.876;2023-08-06T04:32:13;98866.19;;;9.55;nan
7309;BME280;3695;53.330;9.876;2023-08-06T04:34:39;98763.19;;;9.61;nan
7309;BME280;3695;53.330;9.876;2023-08-06T04:37:05;98633.41;;;9.66;nan
7309;BME280;3695;53.330;9.876;2023-08-06T04:39:32;98587.44;;;9.66;nan
7309;BME280;3695;53.330;9.876;2023-08-06T04:41:58;98555.78;;;9.67;nan
7309;BME280;3695;53.330;9.876;2023-08-06T04:44:26;98626.38;;;9.65;nan
7309;BME280;3695;53.330;9.876;2023-08-06T04:46:53;98686.38;;;9.57;nan
7309;BME280;3695;53.330;9.876;2023-08-06T04:49:20;98580.16;;;9.77;nan
7309;BME280;3695;53.330;9.876;2023-08-06T04:51:46;98481.69;;;9.78;nan
7309;BME280;3695;53.330;9.876;2023-08-06T04:54:13;98398.41;;;9.75;nan
7309;BME280;3695;53.330;9.876;2023-08-06T04:56:39;98390.56;;;9.73;nan
7309;BME280;3695;53.330;9.876;2023-08-06T04:59:06;98371.34;;;9.85;nan
7309;BME280;3695;53.330;9.876;2023-08-06T05:01:34;98337.25;;;9.84;nan
7309;BME280;3695;53.330;9.876;2023-08-06T05:04:00;98286.19;;;9.67;nan
7309;BME280;3695;53.330;9.876;2023-08-06T05:06:27;98261.56;;;9.69;nan
7309;BME280;3695;53.330;9.876;2023-08-06T05:08:53;98234.53;;;9.69;nan
7309;BME280;3695;53.330;9.876;2023-08-06T05:11:20;98209.91;;;9.70;nan
7309;BME280;3695;53.330;9.876;2023-08-06T05:13:46;98170.72;;;9.68;nan
7309;BME280;3695;53.330;9.876;2023-08-06T05:16:12;98129.00;;;9.79;nan
7309;BME280;3695;53.330;9.876;2023-08-06T05:18:40;98188.00;;;9.72;nan
7309;BME280;3695;53.330;9.876;2023-08-06T05:21:07;98308.06;;;9.71;nan
7309;BME280;3695;53.330;9.876;2023-08-06T05:23:33;98478.97;;;9.63;nan
7309;BME280;3695;53.330;9.876;2023-08-06T05:25:59;98707.75;;;9.64;nan
7309;BME280;3695;53.330;9.876;2023-08-06T05:28:26;98817.44;;;9.87;nan
7309;BME280;3695;53.330;9.876;2023-08-06T05:30:52;98844.19;;;9.83;nan
7309;BME280;3695;53.330;9.876;2023-08-06T05:33:19;98836.34;;;9.82;nan
7309;BME280;3695;53.330;9.876;2023-08-06T05:35:46;98938.78;;;9.73;nan
7309;BME280;3695;53.330;9.876;2023-08-06T05:38:13;98805.81;;;9.91;nan
7309;BME280;3695;53.330;9.876;2023-08-06T05:40:39;98799.00;;;9.84;nan
7309;BME280;3695;53.330;9.876;2023-08-06T05:43:06;98955.03;;;9.73;nan
7309;BME280;3695;53.330;9.876;2023-08-06T05:45:32;99033.50;;;9.78;nan
7309;BME280;3695;53.330;9.876;2023-08-06T05:47:59;99139.03;;;9.78;nan
7309;BME280;3695;53.330;9.876;2023-08-06T05:50:25;99221.75;;;9.74;nan
7309;BME280;3695;53.330;9.876;2023-08-06T05:52:53;99323.47;;;9.75;nan
7309;BME280;3695;53.330;9.876;2023-08-06T05:55:20;99425.88;;;9.66;nan
7309;BME280;3695;53.330;9.876;2023-08-06T05:57:46;99453.75;;;9.84;nan
7309;BME280;3695;53.330;9.876;2023-08-06T06:00:13;99149.22;;;10.20;nan
7309;BME280;3695;53.330;9.876;2023-08-06T06:02:40;98606.75;;;10.05;nan
7309;BME280;3695;53.330;9.876;2023-08-06T06:05:07;98293.97;;;9.99;nan
7309;BME280;3695;53.330;9.876;2023-08-06T06:07:33;98082.84;;;10.09;nan
7309;BME280;3695;53.330;9.876;2023-08-06T06:10:01;97946.34;;;10.26;nan
7309;BME280;3695;53.330;9.876;2023-08-06T06:12:28;97897.66;;;10.26;nan
7309;BME280;3695;53.330;9.876;2023-08-06T06:14:54;97844.56;;;10.30;nan
7309;BME280;3695;53.330;9.876;2023-08-06T06:17:21;97830.50;;;10.28;nan
7309;BME280;3695;53.330;9.876;2023-08-06T06:19:47;97845.78;;;10.14;nan
7309;BME280;3695;53.330;9.876;2023-08-06T06:22:14;97900.63;;;10.24;nan
7309;BME280;3695;53.330;9.876;2023-08-06T06:24:40;97867.59;;;10.27;nan
7309;BME280;3695;53.330;9.876;2023-08-06T06:27:08;97860.28;;;10.28;nan
7309;BME280;3695;53.330;9.876;2023-08-06T06:29:35;97909.09;;;10.47;nan
7309;BME280;3695;53.330;9.876;2023-08-06T06:32:01;97940.31;;;10.34;nan
7309;BME280;3695;53.330;9.876;2023-08-06T06:34:27;97869.72;;;10.54;nan
7309;BME280;3695;53.330;9.876;2023-08-06T06:36:54;97933.53;;;10.07;nan
7309;BME280;3695;53.330;9.876;2023-08-06T06:39:20;97855.16;;;10.50;nan
7309;BME280;3695;53.330;9.876;2023-08-06T06:41:47;97844.34;;;10.50;nan
7309;BME280;3695;53.330;9.876;2023-08-06T06:44:15;97806.22;;;10.65;nan
7309;BME280;3695;53.330;9.876;2023-08-06T06:46:41;97840.09;;;10.63;nan
7309;BME280;3695;53.330;9.876;2023-08-06T06:49:08;97882.69;;;10.33;nan
7309;BME280;3695;53.330;9.876;2023-08-06T06:51:34;97834.91;;;10.48;nan
7309;BME280;3695;53.330;9.876;2023-08-06T06:54:00;97862.06;;;10.37;nan
7309;BME280;3695;53.330;9.876;2023-08-06T06:56:27;97861.25;;;10.61;nan
7309;BME280;3695;53.330;9.876;2023-08-06T06:58:53;97948.88;;;10.46;nan
7309;BME280;3695;53.330;9.876;2023-08-06T07:01:21;98034.38;;;10.52;nan
7309;BME280;3695;53.330;9.876;2023-08-06T07:03:48;98026.34;;;10.42;nan
7309;BME280;3695;53.330;9.876;2023-08-06T07:06:17;98091.53;;;10.06;nan
7309;BME280;3695;53.330;9.876;2023-08-06T07:08:44;97927.13;;;10.56;nan
7309;BME280;3695;53.330;9.876;2023-08-06T07:11:11;97902.69;;;10.61;nan
7309;BME280;3695;53.330;9.876;2023-08-06T07:13:37;97767.22;;;11.04;nan
7309;BME280;3695;53.330;9.876;2023-08-06T07:16:03;97800.59;;;11.18;nan
7309;BME280;3695;53.330;9.876;2023-08-06T07:18:31;97821.69;;;11.21;nan
7309;BME280;3695;53.330;9.876;2023-08-06T07:20:58;97861.22;;;10.85;nan
7309;BME280;3695;53.330;9.876;2023-08-06T07:23:25;97837.47;;;10.77;nan
7309;BME280;3695;53.330;9.876;2023-08-06T07:25:52;97840.66;;;11.02;nan
7309;BME280;3695;53.330;9.876;2023-08-06T07:28:18;97845.34;;;11.16;nan
7309;BME280;3695;53.330;9.876;2023-08-06T07:30:45;97871.34;;;10.98;nan
7309;BME280;3695;53.330;9.876;2023-08-06T07:33:12;97821.19;;;11.00;nan
7309;BME280;3695;53.330;9.876;2023-08-06T07:35:40;97864.53;;;11.19;nan
7309;BME280;3695;53.330;9.876;2023-08-06T07:38:06;97939.91;;;10.98;nan
7309;BME280;3695;53.330;9.876;2023-08-06T07:40:32;97938.31;;;11.16;nan
7309;BME280;3695;53.330;9.876;2023-08-06T07:43:01;98013.97;;;11.13;nan
7309;BME280;3695;53.330;9.876;2023-08-06T07:45:27;98027.19;;;10.95;nan
7309;BME280;3695;53.330;9.876;2023-08-06T07:47:54;97951.00;;;11.40;nan
7309;BME280;3695;53.330;9.876;2023-08-06T07:50:20;97974.66;;;11.34;nan
7309;BME280;3695;53.330;9.876;2023-08-06T07:52:48;97989.47;;;11.42;nan
7309;BME280;3695;53.330;9.876;2023-08-06T07:55:14;98071.22;;;11.30;nan
7309;BME280;3695;53.330;9.876;2023-08-06T07:57:41;98136.22;;;11.11;nan
7309;BME280;3695;53.330;9.876;2023-08-06T08:00:08;98253.94;;;11.00;nan
7309;BME280;3695;53.330;9.876;2023-08-06T08:02:35;98150.56;;;11.41;nan
7309;BME280;3695;53.330;9.876;2023-08-06T08:05:01;98132.91;;;11.43;nan
7309;BME280;3695;53.330;9.876;2023-08-06T08:07:28;98247.56;;;11.15;nan
7309;BME280;3695;53.330;9.876;2023-08-06T08:09:57;98174.34;;;11.20;nan
7309;BME280;3695;53.330;9.876;2023-08-06T08:12:23;98266.06;;;10.68;nan
7309;BME280;3695;53.330;9.876;2023-08-06T08:14:49;98247.28;;;10.82;nan
7309;BME280;3695;53.330;9.876;2023-08-06T08:17:16;98243.75;;;10.82;nan
7309;BME280;3695;53.330;9.876;2023-08-06T08:19:43;98084.31;;;11.47;nan
7309;BME280;3695;53.330;9.876;2023-08-06T08:22:13;98152.59;;;11.25;nan
7309;BME280;3695;53.330;9.876;2023-08-06T08:24:39;98097.00;;;11.51;nan
7309;BME280;3695;53.330;9.876;2023-08-06T08:27:07;98161.75;;;11.58;nan
7309;BME280;3695;53.330;9.876;2023-08-06T08:29:34;98178.47;;;11.65;nan
7309;BME280;3695;53.330;9.876;2023-08-06T08:32:00;98181.38;;;11.50;nan
7309;BME280;3695;53.330;9.876;2023-08-06T08:34:27;98153.66;;;11.53;nan
7309;BME280;3695;53.330;9.876;2023-08-06T08:36:53;98100.56;;;11.71;nan
7309;BME280;3695;53.330;9.876;2023-08-06T08:39:19;98146.03;;;11.31;nan
7309;BME280;3695;53.330;9.876;2023-08-06T08:41:46;98151.69;;;11.34;nan
7309;BME280;3695;53.330;9.876;2023-08-06T08:44:16;98061.91;;;11.84;nan
7309;BME280;3695;53.330;9.876;2023-08-06T08:46:43;98127.31;;;11.77;nan
7309;BME280;3695;53.330;9.876;2023-08-06T08:49:10;98183.78;;;11.51;nan
7309;BME280;3695;53.330;9.876;2023-08-06T08:51:37;98113.81;;;11.72;nan
7309;BME280;3695;53.330;9.876;2023-08-06T08:54:04;98317.44;;;11.23;nan
7309;BME280;3695;53.330;9.876;2023-08-06T08:56:33;98195.16;;;11.77;nan
7309;BME280;3695;53.330;9.876;2023-08-06T08:59:00;98264.06;;;11.81;nan
7309;BME280;3695;53.330;9.876;2023-08-06T09:01:28;98220.16;;;11.74;nan
7309;BME280;3695;53.330;9.876;2023-08-06T09:03:57;98184.75;;;11.89;nan
7309;BME280;3695;53.330;9.876;2023-08-06T09:06:25;98071.66;;;12.04;nan
7309;BME280;3695;53.330;9.876;2023-08-06T09:08:57;98027.25;;;12.13;nan
7309;BME280;3695;53.330;9.876;2023-08-06T09:11:26;98028.13;;;12.60;nan
7309;BME280;3695;53.330;9.876;2023-08-06T09:13:53;98166.50;;;11.95;nan
7309;BME280;3695;53.330;9.876;2023-08-06T09:16:20;98134.97;;;11.99;nan
7309;BME280;3695;53.330;9.876;2023-08-06T09:18:48;98201.66;;;12.24;nan
7309;BME280;3695;53.330;9.876;2023-08-06T09:21:15;98384.16;;;11.58;nan
7309;BME280;3695;53.330;9.876;2023-08-06T09:23:42;98144.06;;;12.27;nan
7309;BME280;3695;53.330;9.876;2023-08-06T09:26:11;98118.56;;;12.79;nan
7309;BME280;3695;53.330;9.876;2023-08-06T09:28:38;98126.56;;;13.03;nan
7309;BME280;3695;53.330;9.876;2023-08-06T09:31:07;98156.88;;;13.29;nan
7309;BME280;3695;53.330;9.876;2023-08-06T09:33:36;98196.97;;;13.37;nan
7309;BME280;3695;53.330;9.876;2023-08-06T09:36:08;98242.63;;;13.40;nan
7309;BME280;3695;53.330;9.876;2023-08-06T09:38:38;98272.16;;;13.47;nan
7309;BME280;3695;53.330;9.876;2023-08-06T09:41:05;98190.53;;;13.47;nan
7309;BME280;3695;53.330;9.876;2023-08-06T09:43:39;98141.34;;;13.71;nan
7309;BME280;3695;53.330;9.876;2023-08-06T09:46:10;98189.94;;;13.50;nan
7309;BME280;3695;53.330;9.876;2023-08-06T09:48:38;98418.19;;;12.90;nan
7309;BME280;3695;53.330;9.876;2023-08-06T09:51:05;98213.50;;;13.54;nan
7309;BME280;3695;53.330;9.876;2023-08-06T09:53:36;98161.69;;;14.01;nan
7309;BME280;3695;53.330;9.876;2023-08-06T09:56:03;98278.28;;;13.85;nan
7309;BME280;3695;53.330;9.876;2023-08-06T09:58:31;98457.13;;;13.04;nan
7309;BME280;3695;53.330;9.876;2023-08-06T10:00:58;98283.84;;;13.94;nan
7309;BME280;3695;53.330;9.876;2023-08-06T10:03:25;98366.09;;;13.91;nan
7309;BME280;3695;53.330;9.876;2023-08-06T10:05:54;98601.63;;;13.21;nan
7309;BME280;3695;53.330;9.876;2023-08-06T10:08:21;98615.88;;;13.08;nan
7309;BME280;3695;53.330;9.876;2023-08-06T10:10:49;98464.97;;;13.72;nan
7309;BME280;3695;53.330;9.876;2023-08-06T10:13:16;98558.16;;;13.83;nan
7309;BME280;3695;53.330;9.876;2023-08-06T10:15:45;98683.56;;;13.44;nan
7309;BME280;3695;53.330;9.876;2023-08-06T10:18:12;98530.72;;;13.79;nan
7309;BME280;3695;53.330;9.876;2023-08-06T10:20:44;98705.78;;;13.27;nan
7309;BME280;3695;53.330;9.876;2023-08-06T10:23:11;98704.91;;;13.32;nan
7309;BME280;3695;53.330;9.876;2023-08-06T10:25:41;98626.88;;;13.75;nan
7309;BME280;3695;53.330;9.876;2023-08-06T10:28:09;98607.06;;;13.69;nan
7309;BME280;3695;53.330;9.876;2023-08-06T10:30:42;98728.53;;;13.36;nan
7309;BME280;3695;53.330;9.876;2023-08-06T10:33:09;98635.28;;;13.54;nan
7309;BME280;3695;53.330;9.876;2023-08-06T10:35:36;98749.91;;;13.48;nan
7309;BME280;3695;53.330;9.876;2023-08-06T10:38:05;98721.53;;;13.54;nan
7309;BME280;3695;53.330;9.876;2023-08-06T10:40:32;98672.22;;;13.84;nan
7309;BME280;3695;53.330;9.876;2023-08-06T10:42:59;98740.88;;;13.81;nan
7309;BME280;3695;53.330;9.876;2023-08-06T10:45:27;98713.72;;;13.76;nan
7309;BME280;3695;53.330;9.876;2023-08-06T10:47:56;98676.88;;;14.03;nan
7309;BME280;3695;53.330;9.876;2023-08-06T10:50:23;98780.66;;;13.77;nan
7309;BME280;3695;53.330;9.876;2023-08-06T10:52:50;98942.38;;;13.37;nan
7309;BME280;3695;53.330;9.876;2023-08-06T10:55:24;98860.50;;;13.34;nan
7309;BME280;3695;53.330;9.876;2023-08-06T10:57:51;98925.63;;;13.10;nan
7309;BME280;3695;53.330;9.876;2023-08-06T11:00:17;98987.13;;;12.96;nan
7309;BME280;3695;53.330;9.876;2023-08-06T11:02:46;98723.72;;;13.81;nan
7309;BME280;3695;53.330;9.876;2023-08-06T11:05:13;98794.75;;;13.84;nan
7309;BME280;3695;53.330;9.876;2023-08-06T11:07:40;98965.25;;;13.31;nan
7309;BME280;3695;53.330;9.876;2023-08-06T11:10:08;98730.91;;;13.96;nan
7309;BME280;3695;53.330;9.876;2023-08-06T11:12:35;98923.59;;;13.75;nan
7309;BME280;3695;53.330;9.876;2023-08-06T11:15:03;98852.41;;;13.92;nan
7309;BME280;3695;53.330;9.876;2023-08-06T11:17:31;98748.38;;;14.37;nan
7309;BME280;3695;53.330;9.876;2023-08-06T11:20:00;98966.06;;;14.10;nan
7309;BME280;3695;53.330;9.876;2023-08-06T11:22:27;98980.94;;;13.89;nan
7309;BME280;3695;53.330;9.876;2023-08-06T11:24:54;98921.44;;;14.06;nan
7309;BME280;3695;53.330;9.876;2023-08-06T11:27:20;98843.75;;;14.37;nan
7309;BME280;3695;53.330;9.876;2023-08-06T11:29:47;98909.84;;;14.24;nan
7309;BME280;3695;53.330;9.876;2023-08-06T11:32:13;98876.50;;;14.32;nan
7309;BME280;3695;53.330;9.876;2023-08-06T11:34:40;98876.66;;;14.41;nan
7309;BME280;3695;53.330;9.876;2023-08-06T11:37:08;99002.81;;;14.12;nan
7309;BME280;3695;53.330;9.876;2023-08-06T11:39:36;98919.13;;;14.18;nan
7309;BME280;3695;53.330;9.876;2023-08-06T11:42:04;98871.91;;;14.28;nan
7309;BME280;3695;53.330;9.876;2023-08-06T11:44:32;98886.34;;;14.28;nan
7309;BME280;3695;53.330;9.876;2023-08-06T11:46:59;98935.00;;;14.11;nan
7309;BME280;3695;53.330;9.876;2023-08-06T11:49:37;98965.66;;;13.93;nan
7309;BME280;3695;53.330;9.876;2023-08-06T11:52:10;98967.28;;;13.94;nan
7309;BME280;3695;53.330;9.876;2023-08-06T11:54:37;98940.53;;;14.01;nan
7309;BME280;3695;53.330;9.876;2023-08-06T11:57:05;98998.34;;;13.93;nan
7309;BME280;3695;53.330;9.876;2023-08-06T11:59:32;98924.69;;;14.08;nan
7309;BME280;3695;53.330;9.876;2023-08-06T12:02:00;98975.59;;;13.78;nan
7309;BME280;3695;53.330;9.876;2023-08-06T12:04:27;98924.47;;;13.99;nan
7309;BME280;3695;53.330;9.876;2023-08-06T12:06:54;98878.38;;;14.08;nan
7309;BME280;3695;53.330;9.876;2023-08-06T12:09:22;99010.94;;;13.83;nan
7309;BME280;3695;53.330;9.876;2023-08-06T12:11:48;98908.97;;;14.00;nan
7309;BME280;3695;53.330;9.876;2023-08-06T12:14:15;98960.78;;;13.90;nan
7309;BME280;3695;53.330;9.876;2023-08-06T12:16:41;98977.41;;;13.88;nan
7309;BME280;3695;53.330;9.876;2023-08-06T12:19:08;98879.84;;;13.95;nan
7309;BME280;3695;53.330;9.876;2023-08-06T12:21:34;98967.44;;;13.73;nan
7309;BME280;3695;53.330;9.876;2023-08-06T12:24:00;98914.03;;;13.82;nan
7309;BME280;3695;53.330;9.876;2023-08-06T12:26:28;98833.69;;;14.09;nan
7309;BME280;3695;53.330;9.876;2023-08-06T12:28:55;98950.03;;;13.69;nan
7309;BME280;3695;53.330;9.876;2023-08-06T12:31:22;98956.84;;;13.67;nan
7309;BME280;3695;53.330;9.876;2023-08-06T12:33:49;98896.50;;;13.94;nan
7309;BME280;3695;53.330;9.876;2023-08-06T12:36:15;98957.50;;;13.93;nan
7309;BME280;3695;53.330;9.876;2023-08-06T12:38:41;98966.19;;;13.95;nan
7309;BME280;3695;53.330;9.876;2023-08-06T12:41:08;98875.59;;;14.13;nan
7309;BME280;3695;53.330;9.876;2023-08-06T12:43:36;98959.56;;;14.06;nan
7309;BME280;3695;53.330;9.876;2023-08-06T12:46:02;98878.22;;;14.23;nan
7309;BME280;3695;53.330;9.876;2023-08-06T12:48:29;98871.97;;;14.23;nan
7309;BME280;3695;53.330;9.876;2023-08-06T12:50:55;98824.22;;;14.30;nan
7309;BME280;3695;53.330;9.876;2023-08-06T12:53:22;98937.19;;;14.09;nan
7309;BME280;3695;53.330;9.876;2023-08-06T12:55:48;98891.06;;;14.17;nan
7309;BME280;3695;53.330;9.876;2023-08-06T12:58:15;98866.84;;;14.16;nan
7309;BME280;3695;53.330;9.876;2023-08-06T13:00:42;98796.81;;;14.40;nan
7309;BME280;3695;53.330;9.876;2023-08-06T13:03:09;98719.63;;;14.69;nan
7309;BME280;3695;53.330;9.876;2023-08-06T13:05:35;98893.28;;;14.44;nan
7309;BME280;3695;53.330;9.876;2023-08-06T13:08:02;99048.91;;;14.04;nan
7309;BME280;3695;53.330;9.876;2023-08-06T13:10:30;98912.38;;;14.44;nan
7309;BME280;3695;53.330;9.876;2023-08-06T13:12:57;99094.06;;;14.15;nan
7309;BME280;3695;53.330;9.876;2023-08-06T13:15:23;98902.69;;;14.57;nan
7309;BME280;3695;53.330;9.876;2023-08-06T13:17:51;98774.41;;;15.05;nan
7309;BME280;3695;53.330;9.876;2023-08-06T13:20:17;98791.69;;;15.19;nan
7309;BME280;3695;53.330;9.876;2023-08-06T13:22:44;98731.69;;;15.33;nan
7309;BME280;3695;53.330;9.876;2023-08-06T13:25:11;98701.03;;;15.96;nan
7309;BME280;3695;53.330;9.876;2023-08-06T13:27:39;98750.31;;;15.91;nan
7309;BME280;3695;53.330;9.876;2023-08-06T13:30:07;98777.81;;;15.94;nan
7309;BME280;3695;53.330;9.876;2023-08-06T13:32:34;99087.47;;;15.42;nan
7309;BME280;3695;53.330;9.876;2023-08-06T13:35:03;98976.56;;;15.70;nan
7309;BME280;3695;53.330;9.876;2023-08-06T13:37:30;99383.31;;;14.53;nan
7309;BME280;3695;53.330;9.876;2023-08-06T13:39:57;99212.47;;;14.82;nan
7309;BME280;3695;53.330;9.876;2023-08-06T13:42:23;99222.88;;;14.75;nan
7309;BME280;3695;53.330;9.876;2023-08-06T13:44:50;99218.50;;;14.79;nan
7309;BME280;3695;53.330;9.876;2023-08-06T13:47:16;99125.53;;;15.04;nan